Terminal Aerodrome Forecast
Issued by NWS Kansas City/Pleasant Hill, MO

Home | Current Version | Previous Version | Text Only | Print | Product List | Glossary On
Versions: 1 2 3 4 5 6 7 8 9 10 11 12 13 14 15
000
FTUS43 KEAX 031400 AAA
TAFMCI
TAF AMD
KMCI 031404Z 0314/0412 22015G22KT 2SM BR OVC005
     FM031500 24014G23KT P6SM BKN015
     FM032000 33013KT P6SM BKN030=

USA.gov is the U.S. government's official web portal to all federal, state and local government web resources and services.